createdAt,value
2018-03-07T00:00:09.377Z,43.33
2018-03-07T00:02:37.108Z,48.40
2018-03-07T00:05:04.833Z,41.63
2018-03-07T00:07:32.443Z,51.60
2018-03-07T00:10:00.061Z,45.67
2018-03-07T00:12:27.694Z,42.33
2018-03-07T00:14:55.266Z,48.13
2018-03-07T00:17:22.832Z,43.80
2018-03-07T00:19:50.441Z,52.97
2018-03-07T00:22:18.025Z,44.83
2018-03-07T00:24:45.608Z,45.53
2018-03-07T00:27:13.234Z,43.90
2018-03-07T00:29:40.835Z,46.80
2018-03-07T00:32:08.468Z,43.27
2018-03-07T00:34:36.064Z,49.40
2018-03-07T00:37:03.651Z,44.97
2018-03-07T00:39:31.273Z,50.13
2018-03-07T00:41:58.822Z,52.37
2018-03-07T00:44:26.692Z,36.80
2018-03-07T00:46:54.330Z,41.93
2018-03-07T00:49:21.911Z,41.60
2018-03-07T00:51:49.532Z,37.50
2018-03-07T00:54:17.153Z,46.20
2018-03-07T00:56:44.740Z,55.17
2018-03-07T00:59:12.294Z,44.73
2018-03-07T01:01:39.906Z,51.00
2018-03-07T01:04:07.551Z,54.97
2018-03-07T01:06:35.111Z,53.83
2018-03-07T01:09:02.997Z,52.43
2018-03-07T01:11:30.824Z,48.33
2018-03-07T01:13:58.381Z,50.57
2018-03-07T01:16:25.994Z,53.10
2018-03-07T01:18:53.601Z,53.73
2018-03-07T01:21:21.241Z,53.17
2018-03-07T01:23:48.838Z,54.40
2018-03-07T01:26:16.439Z,46.00
2018-03-07T01:28:44.046Z,47.50
2018-03-07T01:31:11.681Z,64.90
2018-03-07T01:33:39.294Z,52.07
2018-03-07T01:36:06.935Z,56.63
2018-03-07T01:38:34.513Z,55.13
2018-03-07T01:41:02.109Z,53.80
2018-03-07T01:43:29.731Z,49.97
2018-03-07T01:45:57.337Z,50.50
2018-03-07T01:48:24.923Z,51.43
2018-03-07T01:50:52.562Z,52.40
2018-03-07T01:53:20.394Z,51.03
2018-03-07T01:55:54.274Z,50.10
2018-03-07T01:58:21.892Z,54.37
2018-03-07T02:00:49.469Z,43.50
2018-03-07T02:03:17.103Z,52.43
2018-03-07T02:05:46.654Z,51.90
2018-03-07T02:08:14.509Z,56.87
2018-03-07T02:10:42.081Z,51.27
2018-03-07T02:13:09.695Z,56.70
2018-03-07T02:15:37.811Z,52.13
2018-03-07T02:18:05.403Z,60.17
2018-03-07T02:20:32.991Z,48.60
2018-03-07T02:23:00.602Z,50.13
2018-03-07T02:25:28.170Z,59.23
2018-03-07T02:27:55.746Z,49.80
2018-03-07T02:30:23.363Z,57.37
2018-03-07T02:32:51.037Z,59.20
2018-03-07T02:35:18.601Z,57.13
2018-03-07T02:37:46.261Z,57.07
2018-03-07T02:40:13.846Z,51.40
2018-03-07T02:42:41.400Z,58.87
2018-03-07T02:45:09.054Z,62.87
2018-03-07T02:47:36.650Z,56.03
2018-03-07T02:50:04.291Z,68.20
2018-03-07T02:52:31.880Z,60.23
2018-03-07T02:54:59.493Z,54.40
2018-03-07T02:57:27.088Z,65.60
2018-03-07T02:59:54.675Z,64.97
2018-03-07T03:02:22.319Z,60.23
2018-03-07T03:04:50.195Z,63.93
2018-03-07T03:07:17.783Z,73.73
2018-03-07T03:09:45.398Z,75.73
2018-03-07T03:12:13.204Z,61.80
2018-03-07T03:14:40.781Z,68.83
2018-03-07T03:17:08.428Z,66.10
2018-03-07T03:19:36.015Z,63.20
2018-03-07T03:22:03.715Z,69.47
2018-03-07T03:24:31.306Z,68.60
2018-03-07T03:26:58.897Z,68.83
2018-03-07T03:29:26.508Z,75.10
2018-03-07T03:31:54.162Z,61.57
2018-03-07T03:34:21.735Z,79.50
2018-03-07T03:36:49.416Z,72.63
2018-03-07T03:39:17.008Z,71.10
2018-03-07T03:41:44.596Z,59.27
2018-03-07T03:44:12.229Z,57.00
2018-03-07T03:46:39.862Z,54.67
2018-03-07T03:49:07.463Z,64.47
2018-03-07T03:51:35.035Z,54.70
2018-03-07T03:54:02.709Z,52.63
2018-03-07T03:56:30.289Z,65.53
2018-03-07T03:58:57.909Z,56.90
2018-03-07T04:01:25.469Z,59.63
2018-03-07T04:03:53.061Z,65.03
2018-03-07T04:06:20.824Z,68.67
2018-03-07T04:08:48.407Z,51.83
2018-03-07T04:11:16.188Z,54.43
2018-03-07T04:13:43.805Z,55.77
2018-03-07T04:16:11.398Z,62.10
2018-03-07T04:18:38.993Z,49.63
2018-03-07T04:21:06.634Z,65.27
2018-03-07T04:23:34.231Z,56.07
2018-03-07T04:26:01.870Z,49.10
2018-03-07T04:28:29.449Z,44.93
2018-03-07T04:30:57.004Z,58.70
2018-03-07T04:33:24.648Z,58.57
2018-03-07T04:35:52.230Z,53.43
2018-03-07T04:38:19.838Z,56.03
2018-03-07T04:40:47.471Z,59.63
2018-03-07T04:43:15.469Z,52.53
2018-03-07T04:45:43.057Z,51.40
2018-03-07T04:48:10.718Z,59.40
2018-03-07T04:50:38.277Z,63.07
2018-03-07T04:53:06.218Z,52.53
2018-03-07T04:55:33.878Z,59.27
2018-03-07T04:58:01.448Z,59.83
2018-03-07T05:00:29.091Z,53.43
2018-03-07T05:02:56.678Z,65.93
2018-03-07T05:05:24.234Z,63.73
2018-03-07T05:07:52.197Z,67.27
2018-03-07T05:10:19.833Z,71.10
2018-03-07T05:12:47.416Z,69.73
2018-03-07T05:15:15.384Z,79.80
2018-03-07T05:17:42.962Z,90.83
2018-03-07T05:20:10.614Z,64.27
2018-03-07T05:22:38.208Z,80.63
2018-03-07T05:25:05.800Z,76.63
2018-03-07T05:27:33.404Z,70.60
2018-03-07T05:30:01.011Z,81.00
2018-03-07T05:32:28.599Z,95.37
2018-03-07T05:34:56.285Z,94.73
2018-03-07T05:37:23.900Z,94.80
2018-03-07T05:39:51.569Z,89.90
2018-03-07T05:42:19.137Z,97.20
2018-03-07T05:44:46.860Z,85.93
2018-03-07T05:47:14.650Z,98.57
2018-03-07T05:49:42.360Z,86.87
2018-03-07T05:52:10.006Z,94.57
2018-03-07T05:54:37.630Z,100.97
2018-03-07T05:57:05.242Z,89.47
2018-03-07T05:59:32.847Z,98.13
2018-03-07T06:02:00.465Z,98.23
2018-03-07T06:04:28.203Z,93.90
2018-03-07T06:06:55.978Z,92.10
2018-03-07T06:09:23.636Z,101.20
2018-03-07T06:11:51.277Z,99.70
2018-03-07T06:14:18.982Z,89.50
2018-03-07T06:16:46.667Z,97.83
2018-03-07T06:19:14.373Z,94.30
2018-03-07T06:21:42.036Z,109.70
2018-03-07T06:24:09.668Z,103.67
2018-03-07T06:26:37.248Z,112.80
2018-03-07T06:29:05.040Z,122.93
2018-03-07T06:31:32.653Z,109.27
2018-03-07T06:34:00.581Z,115.83
2018-03-07T06:36:28.219Z,138.37
2018-03-07T06:38:56.003Z,118.67
2018-03-07T06:41:23.817Z,98.30
2018-03-07T06:43:51.476Z,111.77
2018-03-07T06:46:19.141Z,123.47
2018-03-07T06:48:46.786Z,200.83
2018-03-07T06:51:14.402Z,159.93
2018-03-07T06:53:42.211Z,168.20
2018-03-07T06:56:10.054Z,198.47
2018-03-07T06:58:38.037Z,197.40
2018-03-07T07:01:05.992Z,149.70
2018-03-07T07:03:33.563Z,113.50
2018-03-07T07:06:01.135Z,99.23
2018-03-07T07:08:28.747Z,101.80
2018-03-07T07:10:56.368Z,89.47
2018-03-07T07:13:23.952Z,148.80
2018-03-07T07:15:51.519Z,168.63
2018-03-07T07:18:19.119Z,178.63
2018-03-07T07:20:46.700Z,135.57
2018-03-07T07:23:14.408Z,144.10
2018-03-07T07:25:42.005Z,190.43
2018-03-07T07:28:09.588Z,122.77
2018-03-07T07:30:37.236Z,141.70
2018-03-07T07:33:04.948Z,106.13
2018-03-07T07:35:32.525Z,95.33
2018-03-07T07:38:00.166Z,166.83
2018-03-07T07:40:27.771Z,157.30
2018-03-07T07:42:55.344Z,218.60
2018-03-07T07:45:22.984Z,117.43
2018-03-07T07:47:50.561Z,102.00
2018-03-07T07:50:18.150Z,112.73
2018-03-07T07:52:45.798Z,101.83
2018-03-07T07:55:13.380Z,124.03
2018-03-07T07:57:40.955Z,83.50
2018-03-07T08:00:08.606Z,223.63
2018-03-07T08:02:36.160Z,170.60
2018-03-07T08:05:03.730Z,120.93
2018-03-07T08:07:31.374Z,159.07
2018-03-07T08:09:59.261Z,135.70
2018-03-07T08:12:26.883Z,191.33
2018-03-07T08:14:54.553Z,121.07
2018-03-07T08:17:22.117Z,138.27
2018-03-07T08:19:49.714Z,119.83
2018-03-07T08:22:17.345Z,98.90
2018-03-07T08:24:44.920Z,99.93
2018-03-07T08:27:12.536Z,83.13
2018-03-07T08:29:40.093Z,199.60
2018-03-07T08:32:07.652Z,98.80
2018-03-07T08:34:35.289Z,110.23
2018-03-07T08:37:02.861Z,104.63
2018-03-07T08:39:30.442Z,96.77
2018-03-07T08:41:58.405Z,115.57
2018-03-07T08:44:25.966Z,110.63
2018-03-07T08:46:53.544Z,114.53
2018-03-07T08:49:21.124Z,83.93
2018-03-07T08:51:48.736Z,81.93
2018-03-07T08:54:16.396Z,77.13
2018-03-07T08:56:44.013Z,91.10
2018-03-07T08:59:11.944Z,77.67
2018-03-07T09:01:39.558Z,70.57
2018-03-07T09:04:07.147Z,82.47
2018-03-07T09:06:34.743Z,71.73
2018-03-07T09:09:02.388Z,70.03
2018-03-07T09:11:30.194Z,86.33
2018-03-07T09:13:57.827Z,72.07
2018-03-07T09:16:25.448Z,74.73
2018-03-07T09:18:53.029Z,65.10
2018-03-07T09:21:20.608Z,69.27
2018-03-07T09:23:48.266Z,69.07
2018-03-07T09:26:15.838Z,74.47
2018-03-07T09:28:43.435Z,131.40
2018-03-07T09:31:11.050Z,84.80
2018-03-07T09:33:38.633Z,67.10
2018-03-07T09:36:06.217Z,160.83
2018-03-07T09:38:33.824Z,79.37
2018-03-07T09:41:01.424Z,73.40
2018-03-07T09:43:29.012Z,68.97
2018-03-07T09:45:56.718Z,85.33
2018-03-07T09:48:24.343Z,86.83
2018-03-07T09:50:52.133Z,88.13
2018-03-07T09:53:19.799Z,76.63
2018-03-07T09:55:47.445Z,136.93
2018-03-07T09:58:15.264Z,114.43
2018-03-07T10:00:43.298Z,76.87
2018-03-07T10:03:10.856Z,67.27
2018-03-07T10:05:38.438Z,69.53
2018-03-07T10:08:06.046Z,73.93
2018-03-07T10:10:33.621Z,78.90
2018-03-07T10:13:01.280Z,93.63
2018-03-07T10:15:28.905Z,90.93
2018-03-07T10:17:56.477Z,84.33
2018-03-07T10:20:24.123Z,78.87
2018-03-07T10:22:51.771Z,85.80
2018-03-07T10:25:19.605Z,96.50
2018-03-07T10:27:47.263Z,121.83
2018-03-07T10:30:14.851Z,146.80
2018-03-07T10:32:42.703Z,139.47
2018-03-07T10:35:10.366Z,141.90
2018-03-07T10:37:37.967Z,121.10
2018-03-07T10:40:05.586Z,118.53
2018-03-07T10:42:33.187Z,127.07
2018-03-07T10:45:00.821Z,107.60
2018-03-07T10:47:28.389Z,122.27
2018-03-07T10:49:55.974Z,65.97
2018-03-07T10:52:23.610Z,61.83
2018-03-07T10:54:51.200Z,59.17
2018-03-07T10:57:19.022Z,65.23
2018-03-07T10:59:46.982Z,52.47
2018-03-07T11:02:14.641Z,65.93
2018-03-07T11:04:42.316Z,47.33
2018-03-07T11:07:10.138Z,45.70
2018-03-07T11:09:37.702Z,45.23
2018-03-07T11:12:05.350Z,57.77
2018-03-07T11:14:32.965Z,66.30
2018-03-07T11:17:00.556Z,75.60
2018-03-07T11:19:28.205Z,60.90
2018-03-07T11:21:55.834Z,48.93
2018-03-07T11:24:23.426Z,49.67
2018-03-07T11:26:51.020Z,55.20
2018-03-07T11:29:18.680Z,54.00
2018-03-07T11:31:46.269Z,55.27
2018-03-07T11:34:13.906Z,58.97
2018-03-07T11:36:41.512Z,65.07
2018-03-07T11:39:09.483Z,64.20
2018-03-07T11:41:37.066Z,61.60
2018-03-07T11:44:05.019Z,52.17
2018-03-07T11:46:32.634Z,68.90
2018-03-07T11:49:00.370Z,67.33
2018-03-07T11:51:39.496Z,63.50
2018-03-07T11:54:07.063Z,51.30
2018-03-07T11:56:34.653Z,73.67
2018-03-07T11:59:02.303Z,60.53
2018-03-07T12:01:29.922Z,59.90
2018-03-07T12:03:57.516Z,32.80
2018-03-07T12:06:25.157Z,19.10
2018-03-07T12:08:52.747Z,12.77
2018-03-07T12:11:20.345Z,30.70
2018-03-07T12:13:47.975Z,9.60
2018-03-07T12:16:15.592Z,18.30
2018-03-07T12:18:43.156Z,15.47
2018-03-07T12:21:10.862Z,18.20
2018-03-07T12:23:38.429Z,23.33
2018-03-07T12:26:06.003Z,19.20
2018-03-07T12:28:33.688Z,20.17
2018-03-07T12:31:01.259Z,32.50
2018-03-07T12:33:28.827Z,24.30
2018-03-07T12:35:56.447Z,19.20
2018-03-07T12:38:24.044Z,22.37
2018-03-07T12:40:51.640Z,18.23
2018-03-07T12:43:19.230Z,18.10
2018-03-07T12:45:47.216Z,17.97
2018-03-07T12:48:14.797Z,29.87
2018-03-07T12:50:42.644Z,40.03
2018-03-07T12:53:10.261Z,36.60
2018-03-07T12:55:41.424Z,39.93
2018-03-07T12:58:09.015Z,30.77
2018-03-07T13:00:36.633Z,33.57
2018-03-07T13:03:04.217Z,34.50
2018-03-07T13:05:31.855Z,29.10
2018-03-07T13:07:59.433Z,27.90
2018-03-07T13:10:27.048Z,27.37
2018-03-07T13:12:54.649Z,28.60
2018-03-07T13:15:22.213Z,24.30
2018-03-07T13:17:49.909Z,25.80
2018-03-07T13:20:17.523Z,24.70
2018-03-07T13:22:45.150Z,24.20
2018-03-07T13:25:12.732Z,21.70
2018-03-07T13:27:40.290Z,22.93
2018-03-07T13:30:07.887Z,22.33
2018-03-07T13:32:35.502Z,17.73
2018-03-07T13:35:03.329Z,20.70
2018-03-07T13:37:30.914Z,25.07
2018-03-07T13:39:58.862Z,22.47
2018-03-07T13:42:26.439Z,29.77
2018-03-07T13:44:54.062Z,29.00
2018-03-07T13:47:21.621Z,32.00
2018-03-07T13:49:49.235Z,35.33
2018-03-07T13:52:17.080Z,37.77
2018-03-07T13:54:44.668Z,33.30
2018-03-07T13:57:12.497Z,33.40
2018-03-07T13:59:40.154Z,36.03
2018-03-07T14:02:07.721Z,39.50
2018-03-07T14:04:35.303Z,38.80
2018-03-07T14:07:03.249Z,31.20
2018-03-07T14:09:30.828Z,32.40
2018-03-07T14:11:58.537Z,31.93
2018-03-07T14:14:26.123Z,30.37
2018-03-07T14:16:53.761Z,26.63
2018-03-07T14:19:21.391Z,29.13
2018-03-07T14:21:48.974Z,27.30
2018-03-07T14:24:16.572Z,32.17
2018-03-07T14:26:44.140Z,30.80
2018-03-07T14:29:11.768Z,36.53
2018-03-07T14:31:39.342Z,94.83
2018-03-07T14:34:06.939Z,25.70
2018-03-07T14:36:34.530Z,25.47
2018-03-07T14:39:02.138Z,26.20
2018-03-07T14:41:29.763Z,22.70
2018-03-07T14:43:57.776Z,26.30
2018-03-07T14:46:25.366Z,19.37
2018-03-07T14:48:53.021Z,21.53
2018-03-07T14:51:20.595Z,24.67
2018-03-07T14:53:48.212Z,29.03
2018-03-07T14:56:16.193Z,28.10
2018-03-07T14:58:43.767Z,32.47
2018-03-07T15:01:11.452Z,26.00
2018-03-07T15:03:39.054Z,27.03
2018-03-07T15:06:06.690Z,33.80
2018-03-07T15:08:34.380Z,24.80
2018-03-07T15:11:01.965Z,31.03
2018-03-07T15:13:29.769Z,26.93
2018-03-07T15:15:57.348Z,32.23
2018-03-07T15:18:24.950Z,34.27
2018-03-07T15:20:52.508Z,36.50
2018-03-07T15:23:20.152Z,51.60
2018-03-07T15:25:47.728Z,57.57
2018-03-07T15:28:15.351Z,56.30
2018-03-07T15:30:43.011Z,65.43
2018-03-07T15:33:11.022Z,61.50
2018-03-07T15:35:45.365Z,61.67
2018-03-07T15:38:12.973Z,58.73
2018-03-07T15:40:40.551Z,66.37
2018-03-07T15:43:08.127Z,67.80
2018-03-07T15:45:35.774Z,75.90
2018-03-07T15:48:03.350Z,72.67
2018-03-07T15:50:30.907Z,83.63
2018-03-07T15:52:58.514Z,75.10
2018-03-07T15:55:26.083Z,76.33
2018-03-07T15:57:53.727Z,72.20
2018-03-07T16:00:21.775Z,84.37
2018-03-07T16:02:49.367Z,77.57
2018-03-07T16:05:17.028Z,91.17
2018-03-07T16:07:44.595Z,74.60
2018-03-07T16:10:12.180Z,72.40
2018-03-07T16:12:39.820Z,77.03
2018-03-07T16:15:07.441Z,90.53
2018-03-07T16:17:35.257Z,82.17
2018-03-07T16:20:03.061Z,94.63
2018-03-07T16:22:30.664Z,92.53
2018-03-07T16:24:58.286Z,113.63
2018-03-07T16:27:25.979Z,99.87
2018-03-07T16:29:53.588Z,106.60
2018-03-07T16:32:21.476Z,111.47
2018-03-07T16:34:49.084Z,107.97
2018-03-07T16:37:16.700Z,105.23
2018-03-07T16:39:44.770Z,120.40
2018-03-07T16:42:12.349Z,109.30
2018-03-07T16:44:39.972Z,106.00
2018-03-07T16:47:07.670Z,103.53
2018-03-07T16:49:35.733Z,108.17
2018-03-07T16:52:03.631Z,97.37
2018-03-07T16:54:31.265Z,100.60
2018-03-07T16:56:58.858Z,96.23
2018-03-07T16:59:27.369Z,100.43
2018-03-07T17:01:55.027Z,106.70
2018-03-07T17:04:23.035Z,97.03
2018-03-07T17:06:50.635Z,114.80
2018-03-07T17:09:18.305Z,100.53
2018-03-07T17:11:46.225Z,95.47
2018-03-07T17:14:13.812Z,103.50
2018-03-07T17:16:41.670Z,106.23
2018-03-07T17:19:09.229Z,103.07
2018-03-07T17:21:36.826Z,109.27
2018-03-07T17:24:04.490Z,104.50
2018-03-07T17:26:32.111Z,118.43
2018-03-07T17:28:59.680Z,110.53
2018-03-07T17:31:27.346Z,120.93
2018-03-07T17:33:54.943Z,121.40
2018-03-07T17:36:22.540Z,127.33
2018-03-07T17:38:50.186Z,113.73
2018-03-07T17:41:17.790Z,105.80
2018-03-07T17:43:45.433Z,109.20
2018-03-07T17:46:13.033Z,96.83
2018-03-07T17:48:40.675Z,87.27
2018-03-07T17:51:08.269Z,92.93
2018-03-07T17:53:35.868Z,89.73
2018-03-07T17:56:03.563Z,89.20
2018-03-07T17:58:31.227Z,97.80
2018-03-07T18:00:58.890Z,207.60
2018-03-07T18:03:26.463Z,112.20
2018-03-07T18:05:54.130Z,94.63
2018-03-07T18:08:21.786Z,100.03
2018-03-07T18:10:49.354Z,102.70
2018-03-07T18:13:16.944Z,92.20
2018-03-07T18:15:44.599Z,99.67
2018-03-07T18:18:12.175Z,103.23
2018-03-07T18:20:39.768Z,105.67
2018-03-07T18:23:07.626Z,98.67
2018-03-07T18:25:35.192Z,84.20
2018-03-07T18:28:02.838Z,112.90
2018-03-07T18:30:30.425Z,94.23
2018-03-07T18:32:57.997Z,94.17
2018-03-07T18:35:25.632Z,78.57
2018-03-07T18:37:53.490Z,81.33
2018-03-07T18:40:21.287Z,59.13
2018-03-07T18:42:48.949Z,56.70
2018-03-07T18:45:16.537Z,56.57
2018-03-07T18:47:44.109Z,49.97
2018-03-07T18:50:11.759Z,76.53
2018-03-07T18:52:39.337Z,66.80
2018-03-07T18:55:08.908Z,55.63
2018-03-07T18:57:36.556Z,62.70
2018-03-07T19:00:04.203Z,57.33
2018-03-07T19:02:31.815Z,114.33
2018-03-07T19:05:00.390Z,87.40
2018-03-07T19:07:27.950Z,103.33
2018-03-07T19:09:55.524Z,77.83
2018-03-07T19:12:23.168Z,82.23
2018-03-07T19:14:50.786Z,80.83
2018-03-07T19:17:18.641Z,72.97
2018-03-07T19:19:46.286Z,73.87
2018-03-07T19:22:13.888Z,76.13
2018-03-07T19:24:41.493Z,57.53
2018-03-07T19:27:09.121Z,58.17
2018-03-07T19:29:36.683Z,49.07
2018-03-07T19:32:04.630Z,52.13
2018-03-07T19:34:32.264Z,50.20
2018-03-07T19:36:59.867Z,49.00
2018-03-07T19:39:27.487Z,50.90
2018-03-07T19:41:55.110Z,64.67
2018-03-07T19:44:22.681Z,62.13
2018-03-07T19:46:50.589Z,67.57
2018-03-07T19:49:18.186Z,75.97
2018-03-07T19:51:45.772Z,85.00
2018-03-07T19:54:13.407Z,82.87
2018-03-07T19:56:41.198Z,97.87
2018-03-07T19:59:08.794Z,103.07
2018-03-07T20:01:36.424Z,68.93
2018-03-07T20:04:03.998Z,69.23
2018-03-07T20:06:31.588Z,57.13
2018-03-07T20:08:59.184Z,64.23
2018-03-07T20:11:26.822Z,72.20
2018-03-07T20:13:54.382Z,57.10
2018-03-07T20:16:21.945Z,54.33
2018-03-07T20:18:49.788Z,49.80
2018-03-07T20:21:17.391Z,52.60
2018-03-07T20:23:45.318Z,56.00
2018-03-07T20:26:12.968Z,62.73
2018-03-07T20:28:40.572Z,54.93
2018-03-07T20:31:08.170Z,47.87
2018-03-07T20:33:35.901Z,58.60
2018-03-07T20:36:03.485Z,58.50
2018-03-07T20:38:31.053Z,54.77
2018-03-07T20:40:58.681Z,48.27
2018-03-07T20:43:26.284Z,54.63
2018-03-07T20:45:53.884Z,54.00
2018-03-07T20:48:21.654Z,53.17
2018-03-07T20:50:49.257Z,58.20
2018-03-07T20:53:17.183Z,51.93
2018-03-07T20:55:44.810Z,51.20
2018-03-07T20:58:12.410Z,53.37
2018-03-07T21:00:40.019Z,46.90
2018-03-07T21:03:07.672Z,49.23
2018-03-07T21:05:35.276Z,46.07
2018-03-07T21:08:03.136Z,59.43
2018-03-07T21:10:30.846Z,53.87
2018-03-07T21:12:58.451Z,57.93
2018-03-07T21:15:26.177Z,58.90
2018-03-07T21:17:53.797Z,54.13
2018-03-07T21:20:21.516Z,57.13
2018-03-07T21:22:49.322Z,57.50
2018-03-07T21:25:16.956Z,53.67
2018-03-07T21:27:44.545Z,49.30
2018-03-07T21:30:12.128Z,57.03
2018-03-07T21:32:39.754Z,58.37
2018-03-07T21:35:07.307Z,57.10
2018-03-07T21:37:34.864Z,57.03
2018-03-07T21:40:02.458Z,63.90
2018-03-07T21:42:30.065Z,67.90
2018-03-07T21:44:57.662Z,58.00
2018-03-07T21:47:26.121Z,57.57
2018-03-07T21:49:53.685Z,63.50
2018-03-07T21:52:21.312Z,65.67
2018-03-07T21:54:49.152Z,62.10
2018-03-07T21:57:16.725Z,69.33
2018-03-07T21:59:44.411Z,69.23
2018-03-07T22:02:12.076Z,65.53
2018-03-07T22:04:39.775Z,59.90
2018-03-07T22:07:07.390Z,68.97
2018-03-07T22:09:35.222Z,66.80
2018-03-07T22:12:02.793Z,66.17
2018-03-07T22:14:30.491Z,58.90
2018-03-07T22:16:58.079Z,72.13
2018-03-07T22:19:25.789Z,66.20
2018-03-07T22:21:53.512Z,59.70
2018-03-07T22:24:21.076Z,63.60
2018-03-07T22:26:48.943Z,59.47
2018-03-07T22:29:16.570Z,68.67
2018-03-07T22:31:44.157Z,59.43
2018-03-07T22:34:11.825Z,64.37
2018-03-07T22:36:39.414Z,78.47
2018-03-07T22:39:06.972Z,69.43
2018-03-07T22:41:34.820Z,70.03
2018-03-07T22:44:02.532Z,65.57
2018-03-07T22:46:30.159Z,62.40
2018-03-07T22:48:57.764Z,54.57
2018-03-07T22:51:25.425Z,62.90
2018-03-07T22:53:53.030Z,60.23
2018-03-07T22:56:21.155Z,53.30
2018-03-07T22:58:48.901Z,64.57
2018-03-07T23:01:16.541Z,63.23
2018-03-07T23:03:44.198Z,55.43
2018-03-07T23:06:11.749Z,52.63
2018-03-07T23:08:39.549Z,53.07
2018-03-07T23:11:07.166Z,52.63
2018-03-07T23:13:34.822Z,49.67
2018-03-07T23:16:02.638Z,51.10
2018-03-07T23:18:30.348Z,47.87
2018-03-07T23:20:58.014Z,48.60
2018-03-07T23:23:25.638Z,51.93
2018-03-07T23:25:53.197Z,50.43
2018-03-07T23:28:20.867Z,48.00
2018-03-07T23:30:48.481Z,43.20
2018-03-07T23:33:16.072Z,47.27
2018-03-07T23:35:43.655Z,47.80
2018-03-07T23:38:11.565Z,52.03
2018-03-07T23:40:39.183Z,51.97
2018-03-07T23:43:06.786Z,47.10
2018-03-07T23:45:34.493Z,41.80
2018-03-07T23:48:02.056Z,46.70
2018-03-07T23:50:29.676Z,43.80
2018-03-07T23:52:57.306Z,41.93
2018-03-07T23:55:24.998Z,41.20
2018-03-07T23:57:52.693Z,45.60
